Terminal Aerodrome Forecast
Issued by NWS

Home | Current Version | Previous Version | Graphics & Text | Print | Product List | Glossary On
Versions: 1 2 3 4 5 6 7 8 9 10 11 12 13 14 15 16 17
000
FTUS43 KBIS 202137 AAA
TAFDIK
TAF AMD
KDIK 202137Z 2022/2118 16019G27KT P6SM VCTS FEW110CB SCT200
      TEMPO 2022/2024 VRB30G40KT 2SM +TSRAGS BKN050CB
     FM210300 16013KT P6SM FEW100 SCT200 WS020/19040KT
     FM210700 19012G20KT P6SM FEW090 SCT200
     FM210900 24008KT P6SM FEW100 FEW200=

USA.gov is the U.S. government's official web portal to all federal, state and local government web resources and services.